Time;durP1;ratioP1;P1;durP2;ratioP2;P2;SDS_P1;SDS_P2;PMS_P1;PMS_P2;Temp;Humidity;BMP_temperature;BMP_pressure;BME280_temperature;BME280_humidity;BME280_pressure;Samples;Min_cycle;Max_cycle;Signal;HPM_P1;HPM_P2
2022/08/06 00:00:15;;;;;;;9.60;8.10;;;;;;;20.99;64.79;98127.27;106934;1277;22541;-80
2022/08/06 00:03:03;;;;;;;13.70;7.80;;;;;;;21.02;64.74;98126.17;106617;1274;22545;-79
2022/08/06 00:05:30;;;;;;;9.70;8.40;;;;;;;21.03;64.82;98127.63;106624;1274;137651;-80
2022/08/06 00:07:56;;;;;;;9.20;8.20;;;;;;;21.04;64.79;98124.05;106871;1274;22595;-79
2022/08/06 00:10:24;;;;;;;10.50;8.20;;;;;;;21.05;64.71;98124.02;106675;1274;138181;-79
2022/08/06 00:12:51;;;;;;;10.20;8.00;;;;;;;21.05;64.97;98127.35;107022;1274;24256;-79
2022/08/06 00:15:18;;;;;;;10.20;8.00;;;;;;;21.03;65.15;98128.58;106921;1277;25248;-80
2022/08/06 00:17:46;;;;;;;10.50;8.50;;;;;;;20.92;65.24;98129.85;106366;1277;138130;-79
2022/08/06 00:20:15;;;;;;;10.10;7.80;;;;;;;20.78;65.76;98131.02;107058;1277;25356;-79
2022/08/06 00:22:42;;;;;;;9.90;8.50;;;;;;;20.68;66.15;98131.17;106639;1274;137718;-79
2022/08/06 00:25:14;;;;;;;16.00;8.80;;;;;;;20.61;66.37;98133.50;106670;1274;22591;-79
2022/08/06 00:27:41;;;;;;;8.80;7.90;;;;;;;20.55;66.34;98133.56;106726;1274;22674;-79
2022/08/06 00:30:09;;;;;;;10.20;8.20;;;;;;;20.54;66.62;98133.36;106665;1274;138194;-79
2022/08/06 00:32:36;;;;;;;9.90;8.40;;;;;;;20.57;66.65;98131.97;106424;1277;22552;-80
2022/08/06 00:35:04;;;;;;;17.40;8.40;;;;;;;20.59;66.68;98134.94;106872;1277;137778;-79
2022/08/06 00:37:32;;;;;;;9.40;7.90;;;;;;;20.63;66.21;98135.56;107099;1274;22559;-80
2022/08/06 00:39:59;;;;;;;9.60;8.00;;;;;;;20.69;66.04;98133.60;106936;1277;138184;-79
2022/08/06 00:42:27;;;;;;;10.50;8.60;;;;;;;20.72;65.64;98132.59;106808;1274;23202;-80
2022/08/06 00:44:54;;;;;;;9.50;8.00;;;;;;;20.73;65.62;98134.57;106825;1274;22531;-80
2022/08/06 00:47:21;;;;;;;10.00;8.20;;;;;;;20.74;65.81;98137.88;106743;1277;137390;-79
2022/08/06 00:49:48;;;;;;;9.80;7.90;;;;;;;20.71;66.09;98137.68;106614;1274;22555;-79
2022/08/06 00:52:15;;;;;;;9.70;8.70;;;;;;;20.58;66.40;98135.14;106476;1274;137594;-78
2022/08/06 00:54:41;;;;;;;12.40;8.10;;;;;;;20.48;66.62;98135.19;106327;1276;22663;-78
2022/08/06 00:57:08;;;;;;;8.30;7.40;;;;;;;20.44;66.54;98132.70;106709;1276;22567;-79
2022/08/06 00:59:35;;;;;;;10.20;8.70;;;;;;;20.45;66.65;98134.04;106939;1277;138463;-79
2022/08/06 01:02:02;;;;;;;11.80;7.70;;;;;;;20.46;66.52;98133.80;107331;1276;22691;-79
2022/08/06 01:04:29;;;;;;;10.30;8.20;;;;;;;20.46;66.54;98131.20;107170;1274;138048;-79
2022/08/06 01:06:56;;;;;;;11.70;8.70;;;;;;;20.45;66.55;98129.83;106086;1276;23591;-79
2022/08/06 01:09:23;;;;;;;11.40;8.50;;;;;;;20.46;66.63;98135.57;106740;1276;25401;-79
2022/08/06 01:11:51;;;;;;;8.90;8.10;;;;;;;20.43;66.80;98137.31;106521;1276;138222;-79
2022/08/06 01:14:18;;;;;;;10.40;8.60;;;;;;;20.33;66.88;98134.81;106398;1276;25245;-79
2022/08/06 01:16:53;;;;;;;12.10;9.30;;;;;;;20.20;67.23;98133.45;107080;1277;137749;-79
2022/08/06 01:19:53;;;;;;;12.90;9.30;;;;;;;20.11;67.90;98129.81;106891;1277;23959;-79
2022/08/06 01:22:26;;;;;;;12.50;8.40;;;;;;;20.09;68.28;98132.56;106419;1277;138695;-79
2022/08/06 01:25:17;;;;;;;9.60;8.50;;;;;;;20.09;68.16;98132.02;106710;1276;30294;-78
2022/08/06 01:28:09;;;;;;;10.90;8.30;;;;;;;20.08;68.32;98132.70;106528;1276;22561;-79
2022/08/06 01:30:51;;;;;;;12.70;9.30;;;;;;;20.07;68.41;98131.77;106617;1276;23367;-79
2022/08/06 01:33:27;;;;;;;12.00;8.90;;;;;;;20.04;68.58;98131.85;106616;1277;22647;-79
2022/08/06 01:35:58;;;;;;;13.30;9.30;;;;;;;19.98;68.62;98127.42;106151;1277;137766;-79
2022/08/06 01:38:31;;;;;;;9.90;8.50;;;;;;;19.94;68.87;98130.94;106825;1277;22576;-79
2022/08/06 01:41:02;;;;;;;9.70;8.80;;;;;;;19.92;68.84;98129.39;106185;1277;138791;-79
2022/08/06 01:43:32;;;;;;;11.90;9.20;;;;;;;19.89;68.89;98126.82;106319;1277;22547;-78
2022/08/06 01:46:01;;;;;;;9.30;8.40;;;;;;;19.86;68.75;98129.64;106091;1276;138674;-78
2022/08/06 01:48:31;;;;;;;10.30;9.20;;;;;;;19.84;68.75;98125.67;106405;1276;24267;-79
2022/08/06 01:51:01;;;;;;;9.50;8.50;;;;;;;19.86;68.80;98128.25;106431;1276;23179;-78
2022/08/06 01:53:40;;;;;;;10.00;8.10;;;;;;;19.88;68.77;98127.27;106096;1276;138162;-80
2022/08/06 01:56:09;;;;;;;11.30;8.70;;;;;;;19.90;68.58;98131.27;106176;1277;22703;-80
2022/08/06 01:58:43;;;;;;;11.00;8.20;;;;;;;19.90;68.85;98127.50;106189;1277;138352;-80
2022/08/06 02:01:13;;;;;;;10.90;8.40;;;;;;;19.92;68.94;98124.27;106728;1277;22532;-78
2022/08/06 02:03:45;;;;;;;11.40;8.70;;;;;;;19.94;68.79;98125.38;106007;1276;22885;-78
2022/08/06 02:06:16;;;;;;;11.70;8.70;;;;;;;19.96;68.63;98127.70;106177;1276;22697;-78
2022/08/06 02:08:46;;;;;;;11.50;8.60;;;;;;;19.97;68.90;98164.02;106198;1276;24286;-79
2022/08/06 02:11:13;;;;;;;12.30;8.90;;;;;;;19.87;69.04;98160.54;106249;1276;140496;-80
2022/08/06 02:13:41;;;;;;;11.70;9.60;;;;;;;19.73;69.24;98163.23;106254;1276;22548;-78
2022/08/06 02:16:11;;;;;;;14.70;9.80;;;;;;;19.64;69.80;98162.53;105869;1277;138568;-78
2022/08/06 02:18:41;;;;;;;10.70;9.50;;;;;;;19.58;70.20;98163.79;105924;1275;24343;-79
2022/08/06 02:21:12;;;;;;;13.40;10.00;;;;;;;19.50;70.49;98159.03;106452;1275;24262;-79
2022/08/06 02:23:40;;;;;;;13.60;10.40;;;;;;;19.46;70.95;98159.35;106499;1277;138464;-79
2022/08/06 02:26:09;;;;;;;15.00;10.40;;;;;;;19.42;71.16;98161.04;106765;1276;24255;-79
2022/08/06 02:28:37;;;;;;;16.80;10.90;;;;;;;19.39;71.52;98160.46;106706;1276;138713;-79
2022/08/06 02:31:04;;;;;;;12.90;11.00;;;;;;;19.35;71.76;98147.72;106283;1276;24260;-82
2022/08/06 02:33:31;;;;;;;12.20;10.90;;;;;;;19.33;71.94;98155.98;106571;1276;25260;-80
2022/08/06 02:36:16;;;;;;;14.20;11.00;;;;;;;19.33;72.22;98165.13;106785;1276;138523;-81
2022/08/06 02:38:54;;;;;;;12.50;11.10;;;;;;;19.32;72.43;98173.27;106355;1277;24259;-81
2022/08/06 02:41:29;;;;;;;14.50;11.30;;;;;;;19.30;72.58;98174.73;106857;1277;138485;-81
2022/08/06 02:44:06;;;;;;;12.90;11.20;;;;;;;19.29;72.67;98184.47;106338;1277;22544;-80
2022/08/06 02:46:58;;;;;;;16.40;11.20;;;;;;;19.28;72.77;98185.77;106468;1277;138523;-81
2022/08/06 02:49:33;;;;;;;13.00;11.00;;;;;;;19.27;72.81;98184.06;106333;1277;22532;-82
2022/08/06 02:52:26;;;;;;;17.30;10.90;;;;;;;19.26;72.79;98183.38;106442;1277;139133;-80
2022/08/06 02:55:00;;;;;;;12.60;10.60;;;;;;;19.26;72.87;98191.77;106705;1276;22560;-81
2022/08/06 02:57:36;;;;;;;11.80;10.00;;;;;;;19.25;72.91;98197.91;106597;1277;22693;-81
2022/08/06 03:00:07;;;;;;;15.00;10.70;;;;;;;19.24;73.05;98194.61;106363;1276;138356;-80
2022/08/06 03:02:38;;;;;;;13.90;11.30;;;;;;;19.23;73.15;98197.34;106750;1277;23459;-80
2022/08/06 03:05:07;;;;;;;19.00;12.00;;;;;;;19.25;73.35;98202.30;106469;1275;137894;-80
2022/08/06 03:07:35;;;;;;;14.00;10.90;;;;;;;19.26;73.48;98205.19;106418;1277;24093;-80
2022/08/06 03:10:03;;;;;;;17.70;11.50;;;;;;;19.26;73.50;98209.21;106462;1276;138469;-80
2022/08/06 03:12:32;;;;;;;15.80;10.60;;;;;;;19.25;73.55;98205.71;106229;1277;25356;-80
2022/08/06 03:15:02;;;;;;;13.90;11.60;;;;;;;19.27;73.67;98207.45;106455;1277;22545;-80
2022/08/06 03:17:31;;;;;;;14.70;11.50;;;;;;;19.28;73.69;98207.07;106597;1275;138305;-80
2022/08/06 03:20:01;;;;;;;15.30;11.80;;;;;;;19.30;73.92;98208.29;106580;1277;22567;-80
2022/08/06 03:22:30;;;;;;;18.10;12.30;;;;;;;19.31;73.95;98219.70;106363;1277;138092;-79
2022/08/06 03:24:59;;;;;;;16.40;12.10;;;;;;;19.32;74.07;98226.48;106485;1277;26550;-79
2022/08/06 03:27:26;;;;;;;14.50;12.20;;;;;;;19.33;74.06;98232.13;106002;1277;23902;-79
2022/08/06 03:29:55;;;;;;;17.20;12.20;;;;;;;19.33;74.18;98238.20;105918;1277;139334;-79
2022/08/06 03:32:23;;;;;;;14.70;12.20;;;;;;;19.31;74.37;98244.89;106260;1277;25242;-78
2022/08/06 03:34:52;;;;;;;18.30;12.00;;;;;;;19.31;74.56;98247.70;106184;1277;138470;-79
2022/08/06 03:37:21;;;;;;;17.60;13.90;;;;;;;19.33;74.71;98255.07;106494;1277;25121;-79
2022/08/06 03:39:49;;;;;;;14.80;12.90;;;;;;;19.35;74.92;98250.39;105983;1277;138252;-79
2022/08/06 03:42:17;;;;;;;16.10;12.50;;;;;;;19.38;74.94;98251.31;106917;1277;22551;-79
2022/08/06 03:44:44;;;;;;;18.30;13.70;;;;;;;19.40;75.10;98253.33;106261;1277;24219;-78
2022/08/06 03:47:24;;;;;;;15.50;12.30;;;;;;;19.40;74.97;98251.83;106085;1277;138636;-79
2022/08/06 03:50:04;;;;;;;16.10;12.80;;;;;;;19.42;74.99;98250.79;106649;1277;25235;-79
2022/08/06 03:52:35;;;;;;;13.60;12.20;;;;;;;19.46;74.98;98261.09;106291;1277;138613;-79
2022/08/06 03:55:06;;;;;;;17.30;12.20;;;;;;;19.50;75.09;98270.62;106770;1277;22577;-79
2022/08/06 03:57:38;;;;;;;21.30;13.00;;;;;;;19.55;75.08;98275.16;106446;1277;22611;-79
2022/08/06 04:00:08;;;;;;;16.80;13.40;;;;;;;19.59;75.08;98282.27;106711;1277;137696;-80
2022/08/06 04:02:49;;;;;;;15.00;12.50;;;;;;;19.61;75.02;98281.48;106212;1277;22532;-79
2022/08/06 04:05:23;;;;;;;14.90;13.10;;;;;;;19.64;74.97;98284.02;106396;1276;138556;-80
2022/08/06 04:08:00;;;;;;;18.50;13.60;;;;;;;19.68;74.95;98297.87;106375;1277;24316;-78
2022/08/06 04:10:37;;;;;;;18.60;13.40;;;;;;;19.68;74.89;98302.01;106392;1277;138722;-79
2022/08/06 04:13:09;;;;;;;17.60;13.10;;;;;;;19.66;74.99;98295.42;106132;1277;22545;-79
2022/08/06 04:15:37;;;;;;;18.40;13.40;;;;;;;19.66;75.10;98295.73;105968;1277;22572;-79
2022/08/06 04:18:10;;;;;;;20.10;14.00;;;;;;;19.69;75.51;98302.21;106221;1277;138446;-79
2022/08/06 04:20:41;;;;;;;16.10;13.90;;;;;;;19.71;75.43;98308.68;106319;1277;25362;-78
2022/08/06 04:23:08;;;;;;;20.50;14.70;;;;;;;19.72;75.66;98315.26;105955;1277;138947;-79
2022/08/06 04:25:40;;;;;;;19.30;15.70;;;;;;;19.73;75.81;98314.96;106174;1277;22544;-79
2022/08/06 04:28:09;;;;;;;18.30;16.00;;;;;;;19.72;76.02;98313.04;106388;1276;139342;-79
2022/08/06 04:30:39;;;;;;;23.00;16.40;;;;;;;19.71;76.39;98317.81;106327;1276;22552;-79
2022/08/06 04:33:11;;;;;;;22.20;16.50;;;;;;;19.71;76.58;98320.02;106557;1276;23348;-79
2022/08/06 04:35:40;;;;;;;19.20;16.40;;;;;;;19.69;76.90;98322.44;106064;1276;139128;-80
2022/08/06 04:38:08;;;;;;;22.60;16.90;;;;;;;19.68;77.05;98325.28;106475;1277;22580;-80
2022/08/06 04:40:37;;;;;;;23.20;16.90;;;;;;;19.70;77.28;98328.40;106446;1277;138611;-79
2022/08/06 04:43:06;;;;;;;20.00;17.00;;;;;;;19.75;77.47;98329.84;106396;1277;22537;-80
2022/08/06 04:45:35;;;;;;;23.60;17.70;;;;;;;19.82;77.56;98327.39;106423;1277;23590;-80
2022/08/06 04:48:08;;;;;;;20.60;17.30;;;;;;;19.93;77.75;98329.15;106730;1277;138342;-80
2022/08/06 04:50:36;;;;;;;22.00;16.70;;;;;;;20.07;77.60;98338.85;106313;1277;23891;-79
2022/08/06 04:53:22;;;;;;;19.80;16.80;;;;;;;20.21;77.50;98343.34;106361;1277;139109;-79
2022/08/06 04:55:49;;;;;;;20.80;16.10;;;;;;;20.34;77.13;98348.41;106384;1277;26484;-80
2022/08/06 04:58:16;;;;;;;20.30;15.80;;;;;;;20.44;76.52;98353.59;106216;1277;138644;-79
2022/08/06 05:00:47;;;;;;;19.10;15.50;;;;;;;20.55;76.37;98356.39;106419;1277;22731;-79
2022/08/06 05:03:14;;;;;;;19.40;15.30;;;;;;;20.66;76.38;98363.50;106233;1277;24067;-80
2022/08/06 05:06:09;;;;;;;19.50;15.40;;;;;;;20.79;76.09;98372.61;106548;1277;139068;-79
2022/08/06 05:08:40;;;;;;;22.00;16.40;;;;;;;20.93;75.76;98379.91;106620;1277;22697;-79
2022/08/06 05:11:10;;;;;;;21.90;14.90;;;;;;;20.99;75.44;98383.83;106338;1277;137875;-79
2022/08/06 05:13:39;;;;;;;21.70;16.20;;;;;;;21.06;75.34;98390.16;106775;1277;22545;-79
2022/08/06 05:16:09;;;;;;;17.40;14.50;;;;;;;21.10;75.14;98397.18;106450;1276;138925;-79
2022/08/06 05:18:48;;;;;;;19.70;13.20;;;;;;;21.14;74.69;98406.57;106424;1277;25341;-80
2022/08/06 05:21:36;;;;;;;15.90;11.60;;;;;;;21.18;74.33;98413.27;106588;1277;24380;-81
2022/08/06 05:24:03;;;;;;;16.30;12.50;;;;;;;21.18;73.68;98421.17;106437;1277;138614;-80
2022/08/06 05:26:30;;;;;;;12.70;11.30;;;;;;;21.19;73.79;98428.96;106749;1277;22550;-80
2022/08/06 05:28:57;;;;;;;14.00;10.90;;;;;;;21.17;73.75;98431.80;106518;1276;138027;-81
2022/08/06 05:31:36;;;;;;;13.70;12.20;;;;;;;21.15;74.00;98439.93;106606;1276;24381;-80
2022/08/06 05:34:04;;;;;;;12.50;10.10;;;;;;;21.11;74.10;98451.89;107535;1276;138801;-80
2022/08/06 05:36:31;;;;;;;18.00;12.10;;;;;;;21.08;74.05;98452.39;107234;1276;22545;-81
2022/08/06 05:38:58;;;;;;;13.20;11.60;;;;;;;21.14;74.28;98456.86;106911;1275;22542;-80
2022/08/06 05:41:25;;;;;;;14.50;11.60;;;;;;;21.21;73.95;98455.61;106769;1277;137751;-81
2022/08/06 05:43:52;;;;;;;12.70;11.40;;;;;;;21.28;73.79;98460.93;106604;1278;25258;-81
2022/08/06 05:46:23;;;;;;;11.80;10.60;;;;;;;21.30;73.49;98466.19;106731;1277;138945;-81
2022/08/06 05:49:25;;;;;;;16.20;11.50;;;;;;;21.31;73.46;98474.80;107014;1277;22606;-81
2022/08/06 05:52:12;;;;;;;11.40;10.10;;;;;;;21.34;73.25;98486.76;106716;1276;138778;-80
2022/08/06 05:54:55;;;;;;;16.60;11.60;;;;;;;21.38;73.47;98496.37;106830;1277;22563;-80
2022/08/06 05:57:29;;;;;;;13.80;10.60;;;;;;;21.44;73.31;98505.14;106633;1275;22602;-79
2022/08/06 06:00:10;;;;;;;15.40;11.60;;;;;;;21.48;73.10;98515.27;106439;1277;137735;-80
2022/08/06 06:02:49;;;;;;;13.90;11.70;;;;;;;21.48;73.14;98522.24;106607;1277;22570;-80
2022/08/06 06:05:17;;;;;;;12.60;11.30;;;;;;;21.50;73.08;98527.87;106524;1277;137903;-80
2022/08/06 06:07:44;;;;;;;;;;;;;;;21.50;73.01;98532.40;106778;1277;22537;-79
2022/08/06 06:10:12;;;;;;;11.00;9.80;;;;;;;21.49;73.13;98533.07;105502;1276;1445365;-80
2022/08/06 06:12:40;;;;;;;11.40;10.20;;;;;;;21.52;73.04;98538.12;106694;1277;25296;-82
2022/08/06 06:15:11;;;;;;;12.00;10.20;;;;;;;21.54;73.08;98542.89;106754;1277;23941;-81
2022/08/06 06:18:05;;;;;;;13.50;10.30;;;;;;;21.55;73.49;98552.05;106628;1277;138049;-81
2022/08/06 06:20:39;;;;;;;12.80;10.60;;;;;;;21.63;73.61;98553.02;106754;1277;23306;-81
2022/08/06 06:23:36;;;;;;;11.50;10.40;;;;;;;21.68;73.08;98551.89;106417;1277;138151;-81
2022/08/06 06:26:28;;;;;;;12.80;9.90;;;;;;;21.76;72.86;98554.05;106550;1276;24255;-81
2022/08/06 06:28:55;;;;;;;11.00;9.80;;;;;;;21.88;72.54;98558.46;107626;1277;138570;-79
2022/08/06 06:31:51;;;;;;;14.70;9.50;;;;;;;21.98;72.33;98554.54;106859;1276;22616;-79
2022/08/06 06:34:25;;;;;;;14.10;9.60;;;;;;;22.07;72.02;98560.65;106728;1277;138533;-81
2022/08/06 06:37:05;;;;;;;10.50;9.30;;;;;;;22.12;71.91;98564.61;106876;1277;22559;-82
2022/08/06 06:39:59;;;;;;;16.00;10.40;;;;;;;22.14;71.78;98568.39;106709;1277;22576;-82
2022/08/06 06:42:34;;;;;;;12.10;10.20;;;;;;;22.14;71.75;98573.59;107184;1277;25280;-83
2022/08/06 06:45:06;;;;;;;9.90;8.90;;;;;;;22.18;71.97;98581.64;106547;1277;24321;-81
2022/08/06 06:47:58;;;;;;;10.50;9.40;;;;;;;22.23;71.79;98590.00;106484;1277;137606;-81
2022/08/06 06:50:42;;;;;;;11.10;9.80;;;;;;;22.29;71.73;98591.30;106508;1277;22999;-80
2022/08/06 06:53:11;;;;;;;10.40;9.40;;;;;;;22.41;71.86;98589.27;106458;1277;137653;-81
2022/08/06 06:55:44;;;;;;;13.20;9.20;;;;;;;22.52;71.63;98591.89;106565;1277;22554;-81
2022/08/06 06:58:24;;;;;;;9.20;8.30;;;;;;;22.60;71.40;98598.29;106582;1277;138437;-82
2022/08/06 07:00:54;;;;;;;8.80;7.00;;;;;;;22.61;71.04;98592.98;106447;1276;24356;-80
2022/08/06 07:03:23;;;;;;;9.10;8.30;;;;;;;22.52;70.36;98595.48;106333;1276;22521;-81
2022/08/06 07:05:51;;;;;;;16.90;9.60;;;;;;;22.41;70.20;98601.02;106663;1276;137744;-82
2022/08/06 07:08:20;;;;;;;11.20;10.00;;;;;;;22.32;70.40;98607.81;106555;1276;22648;-81
2022/08/06 07:10:49;;;;;;;9.60;8.30;;;;;;;22.28;70.97;98613.43;106901;1276;138640;-81
2022/08/06 07:13:18;;;;;;;10.50;9.50;;;;;;;22.27;71.21;98620.73;107028;1277;25450;-81
2022/08/06 07:15:45;;;;;;;12.10;10.90;;;;;;;22.26;71.18;98621.96;106299;1277;25305;-79
2022/08/06 07:18:14;;;;;;;12.30;11.20;;;;;;;22.24;71.15;98623.88;106630;1277;25435;-80
2022/08/06 07:20:43;;;;;;;12.30;11.20;;;;;;;22.22;71.02;98625.09;106392;1277;22732;-81
2022/08/06 07:23:10;;;;;;;13.40;11.70;;;;;;;22.22;70.98;98625.64;106405;1277;140827;-80
2022/08/06 07:25:43;;;;;;;13.30;12.00;;;;;;;22.25;71.01;98629.06;106478;1277;25516;-81
2022/08/06 07:28:12;;;;;;;15.20;13.40;;;;;;;22.34;70.89;98632.30;106447;1277;138529;-82
2022/08/06 07:30:40;;;;;;;;;;;;;;;22.47;71.15;98631.77;106258;1277;22583;-82
2022/08/06 07:33:09;;;;;;;14.20;12.40;;;;;;;22.58;70.44;98635.97;106284;1277;23940;-81
2022/08/06 07:35:42;;;;;;;14.30;12.80;;;;;;;22.65;70.07;98640.16;106743;1277;138097;-81
2022/08/06 07:38:12;;;;;;;14.20;12.70;;;;;;;22.66;70.17;98643.90;106730;1277;25251;-80
2022/08/06 07:40:43;;;;;;;14.30;13.00;;;;;;;22.67;70.00;98652.50;106707;1277;139255;-79
2022/08/06 07:43:17;;;;;;;15.70;14.00;;;;;;;22.62;69.39;98661.45;106937;1277;25331;-80
2022/08/06 07:45:45;;;;;;;14.80;13.40;;;;;;;22.51;69.62;98663.63;106702;1277;22666;-81
2022/08/06 07:48:14;;;;;;;14.50;13.10;;;;;;;22.47;70.11;98663.47;106859;1277;24202;-81
2022/08/06 07:50:50;;;;;;;14.50;13.20;;;;;;;22.48;70.19;98670.99;106725;1277;22601;-81
2022/08/06 07:53:19;;;;;;;17.00;14.30;;;;;;;22.48;69.88;98673.49;106555;1277;138644;-81
2022/08/06 07:55:47;;;;;;;14.70;13.40;;;;;;;22.48;70.15;98678.31;106636;1277;22543;-81
2022/08/06 07:58:15;;;;;;;14.70;12.90;;;;;;;22.52;69.39;98681.55;106766;1277;138736;-81
2022/08/06 08:00:43;;;;;;;13.40;12.10;;;;;;;22.51;69.34;98684.33;106652;1276;22565;-80
2022/08/06 08:08:43;;;;;;;12.00;10.60;;;;;;;22.54;69.26;98694.52;106715;1278;22603;-82
2022/08/06 08:11:13;;;;;;;12.40;11.20;;;;;;;22.51;69.34;98700.05;106533;1277;139269;-82
2022/08/06 08:13:40;;;;;;;12.70;11.50;;;;;;;22.49;69.57;98702.05;106824;1277;22597;-82
2022/08/06 08:16:09;;;;;;;10.90;9.80;;;;;;;22.47;69.29;98704.55;106399;1277;138121;-78
2022/08/06 08:18:35;;;;;;;11.10;10.10;;;;;;;22.46;69.31;98705.46;106091;1277;25248;-76
2022/08/06 08:21:03;;;;;;;10.30;9.30;;;;;;;22.47;69.30;98709.81;106413;1277;23906;-77
2022/08/06 08:23:30;;;;;;;9.70;8.80;;;;;;;22.48;69.18;98705.54;106122;1277;138304;-78
2022/08/06 08:26:00;;;;;;;9.60;8.70;;;;;;;22.47;69.05;98711.47;106458;1277;22637;-78
2022/08/06 08:28:27;;;;;;;9.80;8.90;;;;;;;22.48;68.96;98709.52;106149;1274;137754;-85
2022/08/06 08:30:58;;;;;;;13.70;8.80;;;;;;;22.50;68.80;98713.02;106535;1278;22617;-80
2022/08/06 08:33:25;;;;;;;8.70;7.60;;;;;;;22.54;68.76;98714.41;106879;1277;30371;-79
2022/08/06 08:35:52;;;;;;;8.70;7.00;;;;;;;22.61;68.93;98712.40;106180;1277;138230;-79
2022/08/06 08:38:19;;;;;;;6.30;5.70;;;;;;;22.73;67.66;98712.92;106409;1277;24237;-79
2022/08/06 08:40:49;;;;;;;9.40;6.50;;;;;;;22.85;67.23;98715.02;106252;1277;137650;-80
2022/08/06 08:43:21;;;;;;;6.60;5.90;;;;;;;22.99;67.14;98718.52;106592;1277;22551;-79
2022/08/06 08:45:53;;;;;;;6.30;5.70;;;;;;;23.13;66.40;98713.89;106057;1277;137672;-78
2022/08/06 08:48:24;;;;;;;5.10;4.60;;;;;;;23.26;65.22;98710.89;106454;1277;24221;-79
2022/08/06 08:50:52;;;;;;;9.30;4.10;;;;;;;23.34;64.44;98713.88;106243;1278;22560;-79
2022/08/06 08:53:27;;;;;;;7.20;4.30;;;;;;;23.39;63.98;98717.23;106471;1274;137534;-79
2022/08/06 08:55:55;;;;;;;4.30;3.50;;;;;;;23.44;63.79;98718.81;106118;1275;22703;-79
2022/08/06 08:58:22;;;;;;;4.80;3.30;;;;;;;23.45;63.54;98719.82;106223;1274;138553;-78
2022/08/06 09:00:49;;;;;;;3.60;2.80;;;;;;;23.44;62.60;98725.38;106424;1275;22797;-79
2022/08/06 09:03:17;;;;;;;3.30;3.00;;;;;;;23.35;62.41;98727.42;107226;1275;24217;-78
2022/08/06 09:05:44;;;;;;;2.20;2.00;;;;;;;23.24;62.30;98735.40;106314;1276;137909;-78
2022/08/06 09:08:11;;;;;;;5.90;2.40;;;;;;;23.13;61.96;98733.17;106304;1275;25250;-78
2022/08/06 09:10:41;;;;;;;2.60;2.10;;;;;;;23.03;62.23;98740.24;106289;1277;138027;-77
2022/08/06 09:13:08;;;;;;;3.00;2.60;;;;;;;22.94;62.85;98746.11;106264;1274;22557;-77
2022/08/06 09:15:34;;;;;;;2.70;2.50;;;;;;;22.87;63.30;98747.13;106665;1274;22596;-76
2022/08/06 09:18:01;;;;;;;2.20;2.10;;;;;;;22.81;63.59;98749.84;106429;1274;138234;-77
2022/08/06 09:20:28;;;;;;;2.00;1.80;;;;;;;22.78;63.09;98745.71;106418;1274;24302;-77
2022/08/06 09:22:55;;;;;;;3.30;2.00;;;;;;;22.73;63.02;98747.29;106311;1275;137722;-77
2022/08/06 09:25:44;;;;;;;2.00;1.70;;;;;;;22.71;63.24;98754.38;106114;1277;22535;-77
2022/08/06 09:28:11;;;;;;;;;;;;;;;22.66;63.28;98757.73;106455;1276;138158;-77
2022/08/06 09:30:39;;;;;;;2.70;2.00;;;;;;;22.61;63.33;98758.59;106344;1277;25369;-77
2022/08/06 09:33:12;;;;;;;3.90;1.90;;;;;;;22.56;63.31;98765.66;106100;1275;23505;-77
2022/08/06 09:35:39;;;;;;;2.30;1.90;;;;;;;22.48;63.74;98772.09;106478;1274;138258;-78
2022/08/06 09:38:09;;;;;;;2.60;1.70;;;;;;;22.41;63.88;98773.36;106341;1274;22542;-77
2022/08/06 09:40:36;;;;;;;2.70;1.80;;;;;;;22.35;64.26;98770.88;106319;1274;138600;-78
2022/08/06 09:43:03;;;;;;;4.20;2.10;;;;;;;22.32;64.61;98768.80;106342;1274;24233;-77
2022/08/06 09:45:30;;;;;;;2.40;2.20;;;;;;;22.31;64.79;98774.77;105993;1276;22553;-77
2022/08/06 09:48:04;;;;;;;3.50;2.00;;;;;;;22.31;64.95;98777.83;105948;1277;137461;-77
2022/08/06 09:50:49;;;;;;;2.30;2.10;;;;;;;22.30;65.42;98782.40;106032;1277;25564;-77
2022/08/06 09:53:17;;;;;;;2.30;1.90;;;;;;;22.32;65.38;98784.40;106067;1274;137507;-76
2022/08/06 09:55:45;;;;;;;5.90;2.20;;;;;;;22.32;65.00;98784.89;106246;1274;24202;-77
2022/08/06 09:58:12;;;;;;;3.30;1.90;;;;;;;22.31;64.92;98791.30;106333;1274;137937;-77
2022/08/06 10:00:39;;;;;;;2.70;1.70;;;;;;;22.27;65.02;98787.39;106322;1274;22570;-77
2022/08/06 10:03:08;;;;;;;2.90;1.90;;;;;;;22.21;65.03;98792.24;106336;1274;23945;-80
2022/08/06 10:05:36;;;;;;;2.80;1.80;;;;;;;22.14;65.53;98794.84;106344;1277;137581;-77
2022/08/06 10:08:12;;;;;;;2.10;1.40;;;;;;;22.06;65.68;98797.75;106807;1276;22714;-78
2022/08/06 10:10:40;;;;;;;1.70;1.60;;;;;;;21.99;66.06;98802.27;106594;1277;138386;-77
2022/08/06 10:13:26;;;;;;;2.80;1.90;;;;;;;21.95;66.41;98806.77;106336;1277;25334;-77
2022/08/06 10:15:54;;;;;;;3.50;2.00;;;;;;;21.92;66.82;98809.19;106075;1274;138170;-77
2022/08/06 10:18:39;;;;;;;3.90;2.00;;;;;;;21.89;67.15;98810.99;106465;1274;22584;-77
2022/08/06 10:21:09;;;;;;;2.10;1.90;;;;;;;21.86;67.63;98812.84;106690;1274;25315;-77
2022/08/06 10:23:40;;;;;;;3.40;2.30;;;;;;;21.80;67.95;98817.39;106519;1274;138237;-77
2022/08/06 10:26:12;;;;;;;3.80;2.00;;;;;;;21.77;68.22;98819.02;106136;1278;30712;-76
2022/08/06 10:28:41;;;;;;;1.90;1.80;;;;;;;21.74;68.43;98823.58;106578;1276;138278;-76
2022/08/06 10:31:14;;;;;;;2.70;1.80;;;;;;;21.73;68.79;98821.83;106948;1276;22767;-76
2022/08/06 10:33:55;;;;;;;2.60;1.70;;;;;;;21.70;69.22;98824.16;106551;1277;22571;-77
2022/08/06 10:36:28;;;;;;;1.60;1.50;;;;;;;21.69;69.50;98826.51;106282;1277;30553;-78
2022/08/06 10:38:56;;;;;;;3.10;1.50;;;;;;;21.65;69.46;98830.76;106363;1277;23358;-77
2022/08/06 10:41:24;;;;;;;3.70;1.30;;;;;;;21.59;69.61;98836.15;106014;1277;138178;-77
2022/08/06 10:43:54;;;;;;;2.90;1.60;;;;;;;21.57;69.97;98840.79;106304;1277;22568;-78
2022/08/06 10:46:23;;;;;;;3.40;1.40;;;;;;;21.57;70.14;98846.88;106559;1276;138223;-77
2022/08/06 10:48:53;;;;;;;1.20;1.10;;;;;;;21.55;70.16;98849.23;106312;1277;25254;-78
2022/08/06 10:51:21;;;;;;;3.00;1.20;;;;;;;21.50;70.45;98852.06;106216;1277;24544;-78
2022/08/06 10:53:47;;;;;;;1.80;1.10;;;;;;;21.44;70.62;98852.70;106108;1276;137725;-78
2022/08/06 10:56:16;;;;;;;2.10;1.40;;;;;;;21.38;71.00;98856.63;106306;1277;22606;-77
2022/08/06 10:58:43;;;;;;;;;;;;;;;21.33;71.45;98864.61;106687;1276;137567;-76
2022/08/06 11:01:28;;;;;;;2.20;1.70;;;;;;;21.25;71.93;98869.13;106276;1277;22536;-77
2022/08/06 11:04:13;;;;;;;2.20;1.30;;;;;;;21.17;72.35;98870.98;108108;1277;138827;-78
2022/08/06 11:07:18;;;;;;;1.70;1.50;;;;;;;21.10;72.92;98870.47;107546;1276;25403;-78
2022/08/06 11:09:59;;;;;;;2.10;1.30;;;;;;;21.04;73.73;98876.10;106011;1277;23309;-78
2022/08/06 11:12:48;;;;;;;3.50;1.30;;;;;;;21.01;74.48;98879.20;106391;1277;23388;-77
2022/08/06 11:15:15;;;;;;;1.80;1.30;;;;;;;20.95;74.71;98883.05;106330;1277;22534;-77
2022/08/06 11:17:48;;;;;;;1.50;1.40;;;;;;;20.90;74.97;98886.87;106881;1277;139279;-77
2022/08/06 11:20:33;;;;;;;2.50;1.30;;;;;;;20.84;75.23;98889.84;106383;1277;22573;-77
2022/08/06 11:23:03;;;;;;;1.90;1.40;;;;;;;20.77;75.85;98887.02;106612;1275;138113;-77
2022/08/06 11:25:37;;;;;;;2.20;1.20;;;;;;;20.73;76.11;98887.81;106585;1277;24306;-77
2022/08/06 11:28:06;;;;;;;2.20;1.30;;;;;;;20.67;76.51;98886.19;105867;1277;139357;-78
2022/08/06 11:30:48;;;;;;;2.10;1.00;;;;;;;20.62;76.55;98885.23;106176;1277;23384;-77
2022/08/06 11:33:35;;;;;;;3.30;1.20;;;;;;;20.58;77.05;98891.34;106058;1277;25246;-78
2022/08/06 11:36:12;;;;;;;1.10;1.00;;;;;;;20.55;77.39;98893.77;105884;1277;138105;-78
2022/08/06 11:38:51;;;;;;;0.70;0.70;;;;;;;20.51;77.63;98893.05;106174;1277;24323;-78
2022/08/06 11:41:25;;;;;;;0.70;0.50;;;;;;;20.45;77.80;98899.27;105966;1277;138558;-79